createdAt,value
2023-01-10T00:01:27.272Z,99593.59
2023-01-10T00:03:53.586Z,99598.16
2023-01-10T00:06:19.918Z,99606.34
2023-01-10T00:08:46.235Z,99608.28
2023-01-10T00:11:31.451Z,99614.28
2023-01-10T00:13:57.821Z,99623.59
2023-01-10T00:16:24.176Z,99625.19
2023-01-10T00:18:50.543Z,99625.63
2023-01-10T00:21:16.921Z,99636.41
2023-01-10T00:23:43.513Z,99633.34
2023-01-10T00:26:09.842Z,99640.81
2023-01-10T00:28:36.209Z,99645.13
2023-01-10T00:31:06.462Z,99655.72
2023-01-10T00:33:32.857Z,99652.09
2023-01-10T00:35:59.168Z,99653.09
2023-01-10T00:38:25.478Z,99655.88
2023-01-10T00:40:51.818Z,99650.34
2023-01-10T00:43:36.984Z,99661.75
2023-01-10T00:46:03.348Z,99662.75
2023-01-10T00:48:29.710Z,99671.22
2023-01-10T00:50:56.029Z,99672.22
2023-01-10T00:53:22.358Z,99675.28
2023-01-10T00:55:48.668Z,99687.69
2023-01-10T00:58:15.060Z,99703.63
2023-01-10T01:00:41.378Z,99712.13
2023-01-10T01:03:08.141Z,99708.06
2023-01-10T01:05:34.518Z,99719.44
2023-01-10T01:08:00.831Z,99721.56
2023-01-10T01:10:27.172Z,99718.81
2023-01-10T01:12:53.487Z,99723.22
2023-01-10T01:15:22.928Z,99730.41
2023-01-10T01:17:49.253Z,99731.53
2023-01-10T01:20:15.587Z,99733.16
2023-01-10T01:22:41.884Z,99745.56
2023-01-10T01:25:08.233Z,99747.19
2023-01-10T01:27:35.179Z,99752.91
2023-01-10T01:30:01.509Z,99756.16
2023-01-10T01:32:27.939Z,99761.88
2023-01-10T01:34:54.500Z,99772.28
2023-01-10T01:37:20.852Z,99762.69
2023-01-10T01:39:47.230Z,99765.94
2023-01-10T01:42:13.544Z,99770.50
2023-01-10T01:44:39.854Z,99768.25
2023-01-10T01:49:37.961Z,99773.63
2023-01-10T01:52:04.294Z,99771.00
2023-01-10T01:54:30.607Z,99777.53
2023-01-10T01:56:56.964Z,99786.50
2023-01-10T01:59:23.845Z,99785.84
2023-01-10T02:01:50.275Z,99787.63
2023-01-10T02:04:16.678Z,99790.88
2023-01-10T02:06:43.047Z,99785.03
2023-01-10T02:09:09.426Z,99787.66
2023-01-10T02:11:35.829Z,99792.38
2023-01-10T02:14:02.587Z,99791.38
2023-01-10T02:16:28.906Z,99794.00
2023-01-10T02:18:55.221Z,99790.88
2023-01-10T02:21:21.545Z,99794.50
2023-01-10T02:23:47.861Z,99799.19
2023-01-10T02:26:14.185Z,99802.63
2023-01-10T02:28:40.510Z,99803.13
2023-01-10T02:31:06.876Z,99807.84
2023-01-10T02:33:33.227Z,99808.97
2023-01-10T02:35:59.627Z,99817.47
2023-01-10T02:38:25.945Z,99819.44
2023-01-10T02:40:52.255Z,99816.16
2023-01-10T02:43:19.457Z,99820.88
2023-01-10T02:45:45.794Z,99822.19
2023-01-10T02:48:12.138Z,99833.44
2023-01-10T02:50:38.739Z,99827.56
2023-01-10T02:53:05.123Z,99829.00
2023-01-10T02:55:31.470Z,99841.25
2023-01-10T02:57:57.772Z,99850.81
2023-01-10T03:00:24.715Z,99847.38
2023-01-10T03:02:51.026Z,99856.13
2023-01-10T03:05:17.369Z,99855.31
2023-01-10T03:07:43.697Z,99866.91
2023-01-10T03:10:10.036Z,99868.53
2023-01-10T03:12:36.348Z,99878.66
2023-01-10T03:15:03.048Z,99876.22
2023-01-10T03:17:29.766Z,99880.94
2023-01-10T03:19:56.329Z,99886.97
2023-01-10T03:22:22.649Z,99898.56
2023-01-10T03:24:48.959Z,99892.69
2023-01-10T03:27:15.266Z,99891.06
2023-01-10T03:29:41.613Z,99900.78
2023-01-10T03:32:07.917Z,99904.22
2023-01-10T03:34:34.231Z,99911.22
2023-01-10T03:37:00.561Z,99916.94
2023-01-10T03:39:26.899Z,99925.75
2023-01-10T03:41:53.248Z,99919.38
2023-01-10T03:44:38.318Z,99937.00
2023-01-10T03:47:04.672Z,99936.19
2023-01-10T03:49:30.994Z,99947.91
2023-01-10T03:51:57.341Z,99950.19
2023-01-10T03:54:23.679Z,99958.16
2023-01-10T03:56:50.046Z,99959.97
2023-01-10T03:59:16.403Z,99957.69
2023-01-10T04:01:42.839Z,99965.69
2023-01-10T04:04:09.252Z,99963.87
2023-01-10T04:06:35.618Z,99971.06
2023-01-10T04:09:01.932Z,99972.50
2023-01-10T04:11:28.446Z,99975.25
2023-01-10T04:13:54.798Z,99977.56
2023-01-10T04:16:21.173Z,99979.72
2023-01-10T04:18:47.581Z,99990.62
2023-01-10T04:21:13.912Z,99995.66
2023-01-10T04:23:40.271Z,99993.53
2023-01-10T04:26:06.592Z,99988.69
2023-01-10T04:28:32.912Z,100006.13
2023-01-10T04:30:59.325Z,100014.91
2023-01-10T04:33:25.651Z,100018.19
2023-01-10T04:35:52.019Z,100032.03
2023-01-10T04:38:18.349Z,100035.78
2023-01-10T04:40:44.685Z,100034.31
2023-01-10T04:43:11.002Z,100043.25
2023-01-10T04:45:37.531Z,100046.72
2023-01-10T04:48:03.903Z,100058.56
2023-01-10T04:50:30.286Z,100066.06
2023-01-10T04:52:56.672Z,100070.47
2023-01-10T04:55:23.394Z,100077.13
2023-01-10T04:57:49.722Z,100076.19
2023-01-10T05:00:16.067Z,100079.28
2023-01-10T05:02:45.555Z,100077.00
2023-01-10T05:05:12.024Z,100093.56
2023-01-10T05:07:38.409Z,100086.06
2023-01-10T05:10:04.727Z,100098.03
2023-01-10T05:12:31.096Z,100098.44
2023-01-10T05:14:57.401Z,100098.31
2023-01-10T05:17:23.751Z,100101.41
2023-01-10T05:19:50.061Z,100113.28
2023-01-10T05:22:16.388Z,100118.31
2023-01-10T05:24:42.699Z,100128.50
2023-01-10T05:27:09.073Z,100125.81
2023-01-10T05:29:35.443Z,100136.91
2023-01-10T05:32:01.807Z,100141.97
2023-01-10T05:34:28.188Z,100138.22
2023-01-10T05:36:54.525Z,100149.81
2023-01-10T05:39:21.512Z,100157.31
2023-01-10T05:41:47.813Z,100153.63
2023-01-10T05:44:14.895Z,100161.50
2023-01-10T05:46:41.327Z,100158.00
2023-01-10T05:49:07.683Z,100171.16
2023-01-10T05:51:33.989Z,100173.31
2023-01-10T05:54:00.324Z,100184.00
2023-01-10T05:56:26.647Z,100178.88
2023-01-10T05:59:04.415Z,100181.84
2023-01-10T06:01:31.887Z,100186.06
2023-01-10T06:03:58.318Z,100198.81
2023-01-10T06:06:24.726Z,100198.09
2023-01-10T06:08:51.064Z,100208.84
2023-01-10T06:11:17.402Z,100206.59
2023-01-10T06:13:43.804Z,100216.00
2023-01-10T06:16:10.174Z,100219.03
2023-01-10T06:18:36.521Z,100223.50
2023-01-10T06:21:02.840Z,100227.84
2023-01-10T06:23:30.412Z,100232.75
2023-01-10T06:25:56.712Z,100241.88
2023-01-10T06:28:23.030Z,100236.56
2023-01-10T06:30:49.354Z,100243.72
2023-01-10T06:33:15.675Z,100253.38
2023-01-10T06:35:42.053Z,100256.25
2023-01-10T06:38:08.609Z,100265.88
2023-01-10T06:40:35.051Z,100270.72
2023-01-10T06:43:01.475Z,100273.81
2023-01-10T06:45:27.915Z,100289.62
2023-01-10T06:47:54.221Z,100283.28
2023-01-10T06:50:20.603Z,100288.69
2023-01-10T06:52:46.957Z,100298.56
2023-01-10T06:55:13.308Z,100302.47
2023-01-10T06:57:39.637Z,100307.06
2023-01-10T07:00:06.341Z,100319.69
2023-01-10T07:02:32.664Z,100325.31
2023-01-10T07:04:58.986Z,100326.66
2023-01-10T07:07:25.291Z,100334.16
2023-01-10T07:09:51.624Z,100336.41
2023-01-10T07:12:17.959Z,100333.03
2023-01-10T07:14:44.310Z,100344.22
2023-01-10T07:17:10.708Z,100350.91
2023-01-10T07:19:37.058Z,100345.97
2023-01-10T07:22:03.683Z,100355.47
2023-01-10T07:24:30.005Z,100357.28
2023-01-10T07:26:56.628Z,100363.38
2023-01-10T07:29:23.011Z,100360.03
2023-01-10T07:31:49.367Z,100367.31
2023-01-10T07:34:15.712Z,100382.91
2023-01-10T07:36:42.054Z,100374.91
2023-01-10T07:39:08.449Z,100387.84
2023-01-10T07:41:34.852Z,100390.19
2023-01-10T07:44:01.181Z,100399.09
2023-01-10T07:46:27.591Z,100405.28
2023-01-10T07:48:53.964Z,100401.38
2023-01-10T07:51:20.349Z,100416.44
2023-01-10T07:53:46.689Z,100426.91
2023-01-10T07:56:13.122Z,100420.88
2023-01-10T07:58:39.429Z,100418.59
2023-01-10T08:01:06.467Z,100436.87
2023-01-10T08:03:36.846Z,100431.53
2023-01-10T08:06:03.268Z,100423.63
2023-01-10T08:08:29.653Z,100423.22
2023-01-10T08:10:56.024Z,100430.59
2023-01-10T08:13:22.383Z,100437.88
2023-01-10T08:15:50.527Z,100439.63
2023-01-10T08:18:17.084Z,100447.13
2023-01-10T08:20:43.458Z,100460.69
2023-01-10T08:23:09.775Z,100445.78
2023-01-10T08:25:37.944Z,100464.06
2023-01-10T08:28:05.687Z,100474.44
2023-01-10T08:30:32.030Z,100472.97
2023-01-10T08:32:58.394Z,100475.62
2023-01-10T08:35:24.762Z,100474.63
2023-01-10T08:37:51.098Z,100478.34
2023-01-10T08:40:17.429Z,100480.38
2023-01-10T08:42:43.738Z,100488.50
2023-01-10T08:45:10.147Z,100481.72
2023-01-10T08:47:36.516Z,100487.03
2023-01-10T08:50:02.958Z,100485.63
2023-01-10T08:52:29.333Z,100493.75
2023-01-10T08:54:55.651Z,100495.78
2023-01-10T08:57:21.988Z,100499.41
2023-01-10T08:59:48.341Z,100510.78
2023-01-10T09:02:15.106Z,100500.50
2023-01-10T09:04:41.447Z,100512.13
2023-01-10T09:07:07.823Z,100514.69
2023-01-10T09:09:34.164Z,100527.84
2023-01-10T09:12:00.487Z,100534.69
2023-01-10T09:14:26.838Z,100524.84
2023-01-10T09:16:53.150Z,100533.19
2023-01-10T09:19:19.463Z,100531.63
2023-01-10T09:21:45.778Z,100539.94
2023-01-10T09:24:12.488Z,100554.31
2023-01-10T09:26:38.823Z,100560.91
2023-01-10T09:29:05.148Z,100568.41
2023-01-10T09:31:31.533Z,100578.16
2023-01-10T09:33:57.863Z,100581.03
2023-01-10T09:36:24.198Z,100576.94
2023-01-10T09:38:50.524Z,100578.16
2023-01-10T09:41:16.846Z,100587.38
2023-01-10T09:43:43.149Z,100582.28
2023-01-10T09:46:09.473Z,100598.47
2023-01-10T09:48:35.804Z,100587.09
2023-01-10T09:51:02.144Z,100599.81
2023-01-10T09:53:28.477Z,100596.22
2023-01-10T09:55:54.860Z,100599.25
2023-01-10T09:58:21.278Z,100597.44
2023-01-10T10:00:47.609Z,100599.28
2023-01-10T10:03:14.004Z,100598.38
2023-01-10T10:05:40.375Z,100604.41
2023-01-10T10:08:07.426Z,100609.44
2023-01-10T10:10:33.759Z,100606.13
2023-01-10T10:13:00.084Z,100602.97
2023-01-10T10:15:26.396Z,100597.66
2023-01-10T10:17:52.735Z,100601.22
2023-01-10T10:20:19.075Z,100607.56
2023-01-10T10:22:45.396Z,100609.06
2023-01-10T10:25:11.819Z,100602.59
2023-01-10T10:27:38.147Z,100604.03
2023-01-10T10:30:04.885Z,100610.19
2023-01-10T10:32:31.210Z,100600.94
2023-01-10T10:34:57.571Z,100598.16
2023-01-10T10:37:23.884Z,100601.47
2023-01-10T10:39:50.228Z,100605.06
2023-01-10T10:42:16.569Z,100598.69
2023-01-10T10:44:43.023Z,100604.03
2023-01-10T10:47:09.325Z,100612.12
2023-01-10T10:49:35.643Z,100616.37
2023-01-10T10:52:01.982Z,100607.31
2023-01-10T10:54:28.315Z,100604.53
2023-01-10T10:56:56.217Z,100604.03
2023-01-10T10:59:22.581Z,100604.03
2023-01-10T11:01:49.976Z,100600.00
2023-01-10T11:04:16.390Z,100619.84
2023-01-10T11:06:48.897Z,100619.63
2023-01-10T11:09:16.316Z,100620.47
2023-01-10T11:11:42.703Z,100625.09
2023-01-10T11:14:09.042Z,100618.94
2023-01-10T11:16:36.792Z,100624.56
2023-01-10T11:19:03.124Z,100627.75
2023-01-10T11:21:29.443Z,100627.03
2023-01-10T11:23:55.773Z,100631.78
2023-01-10T11:26:22.122Z,100643.38
2023-01-10T11:28:48.843Z,100631.56
2023-01-10T11:31:15.209Z,100639.78
2023-01-10T11:33:41.538Z,100635.69
2023-01-10T11:36:07.963Z,100640.59
2023-01-10T11:38:35.016Z,100643.06
2023-01-10T11:41:01.372Z,100646.47
2023-01-10T11:43:27.768Z,100641.94
2023-01-10T11:45:54.123Z,100644.28
2023-01-10T11:48:21.407Z,100630.00
2023-01-10T11:50:50.966Z,100626.38
2023-01-10T11:53:17.318Z,100625.88
2023-01-10T11:55:43.653Z,100633.03
2023-01-10T11:58:10.150Z,100632.50
2023-01-10T12:00:36.559Z,100648.75
2023-01-10T12:03:02.878Z,100648.44
2023-01-10T12:05:29.329Z,100653.87
2023-01-10T12:07:56.313Z,100646.38
2023-01-10T12:10:22.698Z,100654.06
2023-01-10T12:12:49.004Z,100654.97
2023-01-10T12:15:15.344Z,100655.53
2023-01-10T12:17:41.701Z,100651.38
2023-01-10T12:20:08.042Z,100665.75
2023-01-10T12:22:34.353Z,100667.44
2023-01-10T12:25:00.665Z,100662.78
2023-01-10T12:27:27.496Z,100669.03
2023-01-10T12:29:53.843Z,100667.87
2023-01-10T12:32:20.303Z,100672.50
2023-01-10T12:34:46.621Z,100670.72
2023-01-10T12:37:14.795Z,100670.87
2023-01-10T12:39:41.420Z,100680.50
2023-01-10T12:42:26.738Z,100675.97
2023-01-10T12:44:53.050Z,100680.09
2023-01-10T12:47:19.656Z,100678.63
2023-01-10T12:49:46.077Z,100685.97
2023-01-10T12:52:12.395Z,100682.75
2023-01-10T12:54:38.719Z,100691.47
2023-01-10T12:57:05.044Z,100692.09
2023-01-10T12:59:38.054Z,100697.34
2023-01-10T13:02:04.566Z,100692.44
2023-01-10T13:04:30.921Z,100697.75
2023-01-10T13:06:57.283Z,100702.28
2023-01-10T13:09:23.804Z,100696.88
2023-01-10T13:11:50.185Z,100693.38
2023-01-10T13:14:16.493Z,100694.81
2023-01-10T13:16:42.961Z,100701.37
2023-01-10T13:19:09.276Z,100698.28
2023-01-10T13:21:35.663Z,100707.53
2023-01-10T13:24:02.055Z,100702.63
2023-01-10T13:26:28.414Z,100704.87
2023-01-10T13:28:54.945Z,100708.69
2023-01-10T13:31:21.398Z,100719.91
2023-01-10T13:33:47.735Z,100712.09
2023-01-10T13:36:14.080Z,100707.38
2023-01-10T13:38:40.454Z,100727.63
2023-01-10T13:41:06.753Z,100718.16
2023-01-10T13:43:36.911Z,100723.50
2023-01-10T13:46:03.328Z,100724.44
2023-01-10T13:48:29.689Z,100730.62
2023-01-10T13:50:56.001Z,100742.13
2023-01-10T13:53:22.355Z,100740.75
2023-01-10T13:55:53.934Z,100742.03
2023-01-10T13:58:21.439Z,100751.81
2023-01-10T14:01:06.785Z,100755.56
2023-01-10T14:03:33.182Z,100756.44
2023-01-10T14:05:59.591Z,100763.44
2023-01-10T14:08:25.897Z,100757.59
2023-01-10T14:10:52.203Z,100757.38
2023-01-10T14:13:18.503Z,100763.84
2023-01-10T14:15:45.928Z,100756.53
2023-01-10T14:18:12.302Z,100761.78
2023-01-10T14:20:38.682Z,100759.13
2023-01-10T14:23:05.455Z,100754.88
2023-01-10T14:25:31.820Z,100763.84
2023-01-10T14:27:59.079Z,100765.59
2023-01-10T14:30:25.394Z,100765.06
2023-01-10T14:32:51.766Z,100755.31
2023-01-10T14:35:18.079Z,100760.03
2023-01-10T14:37:44.408Z,100761.78
2023-01-10T14:40:10.715Z,100757.97
2023-01-10T14:42:37.072Z,100763.84
2023-01-10T14:45:03.417Z,100759.44
2023-01-10T14:47:29.882Z,100748.13
2023-01-10T14:50:03.406Z,100747.19
2023-01-10T14:52:29.749Z,100749.75
2023-01-10T14:54:57.037Z,100755.09
2023-01-10T14:57:23.476Z,100752.53
2023-01-10T14:59:50.251Z,100766.09
2023-01-10T15:02:21.141Z,100757.69
2023-01-10T15:04:47.569Z,100751.59
2023-01-10T15:07:13.911Z,100758.69
2023-01-10T15:09:40.302Z,100759.09
2023-01-10T15:12:06.626Z,100758.69
2023-01-10T15:14:33.032Z,100768.56
2023-01-10T15:17:00.867Z,100763.75
2023-01-10T15:19:27.176Z,100773.41
2023-01-10T15:21:53.969Z,100773.69
2023-01-10T15:24:20.294Z,100778.97
2023-01-10T15:26:46.604Z,100791.06
2023-01-10T15:29:13.267Z,100790.16
2023-01-10T15:31:39.688Z,100783.69
2023-01-10T15:34:06.052Z,100797.03
2023-01-10T15:36:32.397Z,100797.66
2023-01-10T15:38:58.769Z,100795.53
2023-01-10T15:41:25.076Z,100791.59
2023-01-10T15:43:54.345Z,100792.94
2023-01-10T15:46:20.743Z,100801.47
2023-01-10T15:48:47.165Z,100798.69
2023-01-10T15:51:13.639Z,100800.78
2023-01-10T15:53:39.960Z,100798.59
2023-01-10T15:56:06.290Z,100795.41
2023-01-10T15:58:32.598Z,100799.84
2023-01-10T16:00:59.084Z,100807.16
2023-01-10T16:03:25.670Z,100797.03
2023-01-10T16:05:52.213Z,100794.47
2023-01-10T16:08:18.539Z,100806.59
2023-01-10T16:10:44.924Z,100805.88
2023-01-10T16:13:31.760Z,100807.81
2023-01-10T16:15:58.221Z,100805.69
2023-01-10T16:18:24.599Z,100804.44
2023-01-10T16:20:50.937Z,100797.13
2023-01-10T16:23:17.562Z,100794.59
2023-01-10T16:25:44.823Z,100801.78
2023-01-10T16:28:11.129Z,100798.91
2023-01-10T16:30:40.603Z,100800.13
2023-01-10T16:33:06.949Z,100787.69
2023-01-10T16:35:33.287Z,100794.59
2023-01-10T16:38:00.716Z,100788.22
2023-01-10T16:40:27.618Z,100786.06
2023-01-10T16:43:12.893Z,100785.91
2023-01-10T16:45:39.293Z,100784.88
2023-01-10T16:48:05.662Z,100793.28
2023-01-10T16:50:32.056Z,100789.81
2023-01-10T16:52:58.369Z,100789.56
2023-01-10T16:55:24.852Z,100785.53
2023-01-10T16:57:51.832Z,100789.22
2023-01-10T17:00:18.176Z,100787.03
2023-01-10T17:02:44.519Z,100788.75
2023-01-10T17:05:10.915Z,100784.25
2023-01-10T17:07:37.325Z,100782.81
2023-01-10T17:10:04.488Z,100784.38
2023-01-10T17:12:30.816Z,100782.03
2023-01-10T17:14:57.192Z,100772.41
2023-01-10T17:17:23.508Z,100776.94
2023-01-10T17:19:49.809Z,100777.19
2023-01-10T17:22:16.193Z,100780.44
2023-01-10T17:24:42.582Z,100776.53
2023-01-10T17:27:08.995Z,100778.00
2023-01-10T17:29:35.551Z,100786.13
2023-01-10T17:32:02.043Z,100781.00
2023-01-10T17:34:31.181Z,100782.16
2023-01-10T17:36:57.493Z,100785.03
2023-01-10T17:39:23.810Z,100791.09
2023-01-10T17:41:50.390Z,100790.69
2023-01-10T17:44:16.711Z,100795.75
2023-01-10T17:46:43.043Z,100784.97
2023-01-10T17:49:09.943Z,100780.53
2023-01-10T17:51:37.141Z,100780.38
2023-01-10T17:54:03.725Z,100776.88
2023-01-10T17:56:30.067Z,100782.09
2023-01-10T17:58:56.374Z,100773.25
2023-01-10T18:01:25.236Z,100773.88
2023-01-10T18:03:51.981Z,100772.69
2023-01-10T18:06:23.811Z,100772.16
2023-01-10T18:08:50.753Z,100775.44
2023-01-10T18:11:17.189Z,100771.44
2023-01-10T18:13:43.519Z,100776.50
2023-01-10T18:16:09.851Z,100783.53
2023-01-10T18:18:36.254Z,100781.72
2023-01-10T18:21:05.347Z,100793.75
2023-01-10T18:23:32.844Z,100793.94
2023-01-10T18:26:02.425Z,100798.97
2023-01-10T18:28:40.118Z,100804.56
2023-01-10T18:31:07.607Z,100809.69
2023-01-10T18:33:33.982Z,100801.53
2023-01-10T18:36:00.316Z,100802.44
2023-01-10T18:38:26.648Z,100800.50
2023-01-10T18:40:53.030Z,100804.31
2023-01-10T18:43:19.410Z,100804.03
2023-01-10T18:45:45.805Z,100797.44
2023-01-10T18:48:12.210Z,100803.00
2023-01-10T18:50:38.540Z,100798.12
2023-01-10T18:53:04.938Z,100797.44
2023-01-10T18:55:31.335Z,100791.59
2023-01-10T18:57:57.741Z,100792.87
2023-01-10T19:00:24.074Z,100789.53
2023-01-10T19:02:50.503Z,100793.44
2023-01-10T19:05:16.933Z,100789.16
2023-01-10T19:07:43.267Z,100795.44
2023-01-10T19:10:10.192Z,100789.56
2023-01-10T19:12:40.598Z,100790.56
2023-01-10T19:15:06.945Z,100781.34
2023-01-10T19:17:33.254Z,100780.16
2023-01-10T19:19:59.584Z,100779.94
2023-01-10T19:22:25.966Z,100789.50
2023-01-10T19:24:52.310Z,100782.81
2023-01-10T19:27:18.708Z,100787.69
2023-01-10T19:29:48.239Z,100786.47
2023-01-10T19:32:14.806Z,100771.69
2023-01-10T19:34:41.167Z,100778.63
2023-01-10T19:37:07.571Z,100783.66
2023-01-10T19:39:33.954Z,100788.31
2023-01-10T19:42:03.565Z,100789.97
2023-01-10T19:44:29.958Z,100778.38
2023-01-10T19:46:56.295Z,100776.22
2023-01-10T19:49:23.479Z,100780.25
2023-01-10T19:51:51.265Z,100771.59
2023-01-10T19:54:17.653Z,100779.72
2023-01-10T19:56:44.030Z,100776.19
2023-01-10T19:59:10.422Z,100772.78
2023-01-10T20:01:36.771Z,100766.09
2023-01-10T20:04:03.126Z,100769.97
2023-01-10T20:06:29.456Z,100761.38
2023-01-10T20:08:55.918Z,100758.50
2023-01-10T20:11:22.299Z,100769.19
2023-01-10T20:13:49.411Z,100756.81
2023-01-10T20:16:15.842Z,100760.69
2023-01-10T20:18:42.220Z,100757.62
2023-01-10T20:21:08.609Z,100761.38
2023-01-10T20:23:34.939Z,100761.97
2023-01-10T20:26:06.233Z,100750.91
2023-01-10T20:28:32.558Z,100755.19
2023-01-10T20:30:58.898Z,100747.97
2023-01-10T20:33:26.941Z,100744.50
2023-01-10T20:35:53.277Z,100744.44
2023-01-10T20:38:19.667Z,100748.22
2023-01-10T20:40:45.971Z,100750.72
2023-01-10T20:43:12.478Z,100746.06
2023-01-10T20:45:38.792Z,100734.16
2023-01-10T20:48:05.434Z,100742.00
2023-01-10T20:50:31.765Z,100750.31
2023-01-10T20:52:58.079Z,100744.25
2023-01-10T20:55:24.417Z,100753.34
2023-01-10T20:57:50.757Z,100746.53
2023-01-10T21:00:18.028Z,100744.38
2023-01-10T21:02:44.446Z,100740.59
2023-01-10T21:05:10.893Z,100752.37
2023-01-10T21:07:37.222Z,100744.34
2023-01-10T21:10:03.568Z,100742.78
2023-01-10T21:12:31.313Z,100746.13
2023-01-10T21:14:57.640Z,100736.25
2023-01-10T21:17:23.979Z,100734.38
2023-01-10T21:19:50.303Z,100735.31
2023-01-10T21:22:17.344Z,100734.25
2023-01-10T21:24:43.667Z,100729.91
2023-01-10T21:27:10.039Z,100730.78
2023-01-10T21:29:36.479Z,100722.78
2023-01-10T21:32:02.840Z,100710.31
2023-01-10T21:34:29.165Z,100723.59
2023-01-10T21:36:57.003Z,100721.91
2023-01-10T21:39:23.337Z,100722.19
2023-01-10T21:42:08.472Z,100719.59
2023-01-10T21:44:34.801Z,100722.25
2023-01-10T21:47:01.212Z,100726.94
2023-01-10T21:49:27.581Z,100721.66
2023-01-10T21:51:53.886Z,100719.25
2023-01-10T21:54:20.283Z,100724.50
2023-01-10T21:56:46.624Z,100728.41
2023-01-10T21:59:12.956Z,100717.06
2023-01-10T22:01:39.273Z,100727.63
2023-01-10T22:04:05.638Z,100728.22
2023-01-10T22:06:32.088Z,100730.41
2023-01-10T22:08:58.461Z,100728.75
2023-01-10T22:11:24.784Z,100720.44
2023-01-10T22:13:52.768Z,100715.50
2023-01-10T22:16:19.134Z,100712.47
2023-01-10T22:18:45.700Z,100712.53
2023-01-10T22:21:12.660Z,100708.44
2023-01-10T22:23:43.015Z,100700.44
2023-01-10T22:26:09.346Z,100697.63
2023-01-10T22:28:35.705Z,100692.72
2023-01-10T22:31:02.016Z,100687.72
2023-01-10T22:33:28.338Z,100691.00
2023-01-10T22:35:54.665Z,100690.75
2023-01-10T22:38:20.989Z,100678.06
2023-01-10T22:40:47.313Z,100684.37
2023-01-10T22:43:13.717Z,100684.66
2023-01-10T22:45:40.113Z,100678.84
2023-01-10T22:48:06.474Z,100665.25
2023-01-10T22:50:32.807Z,100667.81
2023-01-10T22:52:59.127Z,100657.25
2023-01-10T22:55:25.455Z,100646.47
2023-01-10T22:57:51.769Z,100644.25
2023-01-10T23:00:18.152Z,100645.91
2023-01-10T23:02:44.529Z,100642.38
2023-01-10T23:05:10.892Z,100635.19
2023-01-10T23:07:37.263Z,100632.16
2023-01-10T23:10:03.577Z,100627.47
2023-01-10T23:12:29.896Z,100624.78
2023-01-10T23:14:56.271Z,100624.19
2023-01-10T23:17:23.697Z,100621.78
2023-01-10T23:19:50.020Z,100624.03
2023-01-10T23:22:16.368Z,100621.31
2023-01-10T23:24:42.699Z,100612.28
2023-01-10T23:27:09.015Z,100617.75
2023-01-10T23:29:35.338Z,100616.13
2023-01-10T23:32:01.831Z,100612.81
2023-01-10T23:34:28.158Z,100610.59
2023-01-10T23:36:54.475Z,100603.37
2023-01-10T23:39:20.781Z,100601.50
2023-01-10T23:41:47.133Z,100611.41
2023-01-10T23:44:13.519Z,100602.59
2023-01-10T23:46:39.855Z,100601.00
2023-01-10T23:49:06.238Z,100597.06
2023-01-10T23:51:32.556Z,100592.13
2023-01-10T23:53:58.962Z,100593.03
2023-01-10T23:56:25.282Z,100584.81
2023-01-10T23:58:52.587Z,100587.59
